»·PEaware :: AAL2063 KPHX-KLAS

AAL2063 :: KPHX-KLAS

FLIGHT INFORMATION

Flight Status: Arrived
Operator:
American Airlines
More flights by this operator :: More flights under this callsign
Pilot: Kevin M. (7)
Aircraft: BOEING 737-800
(B738)
More flights by this aircraft type
Origin: KPHX Phoenix Sky Harbor Intl
United States
Destination: KLAS McCarran Intl
United States
More flights between these airports :: More routes between these airports
Route: ZEPER1 SISIE IGM TYSSN5
File this flight plan on PilotEdge
Remarks:
Altitude:
(Current/Filed)
26,000ft
Speed:
(Current/Filed)
468kts
Departed: 16-Mar-20 02:19 PM
Arrived: 16-Mar-20 03:02 PM
Distance/Time
Traveled:
221nm/0:43
Distance/Time
To Go:
Arrived

Flight Plot

Page will automatically refresh every two minutes.

Flight plan parsing failed; only flown route is shown


Map Options




Map Legend


Flown Route
Filed Route
Departure Airport
Arrival Airport
Navaid (VOR, NDB)
Fix

Horizontal Profiles

Position Reports

Time Latitude Longitude Heading Altitude Ground
Speed
16-Mar-20 13:54 33.438367 -112.001603 199 1135ft 0kts
16-Mar-20 13:56 33.438367 -112.001603 199 1135ft 0kts
16-Mar-20 13:57 33.438367 -112.001603 199 1135ft 0kts
16-Mar-20 13:57 33.438367 -112.001603 199 1135ft 0kts
16-Mar-20 13:58 33.438367 -112.001603 199 1135ft 0kts
16-Mar-20 13:59 33.438367 -112.001603 199 1135ft 0kts
16-Mar-20 14:00 33.438701 -112.001459 200 1136ft 2kts
16-Mar-20 14:01 33.439053 -112.001070 275 1136ft 1kts
16-Mar-20 14:02 33.439050 -112.001020 270 1136ft 0kts
16-Mar-20 14:03 33.439050 -112.001020 270 1136ft 0kts
16-Mar-20 14:05 33.439050 -112.001020 270 1136ft 0kts
16-Mar-20 14:05 33.439050 -112.001020 270 1136ft 0kts
16-Mar-20 14:06 33.439050 -112.001020 270 1136ft 0kts
16-Mar-20 14:07 33.439050 -112.001020 270 1136ft 0kts
16-Mar-20 14:08 33.439050 -112.001020 270 1136ft 0kts
16-Mar-20 14:09 33.439050 -112.001020 270 1136ft 0kts
16-Mar-20 14:10 33.439050 -112.001020 270 1136ft 0kts
16-Mar-20 14:11 33.439034 -112.003454 263 1133ft 11kts
16-Mar-20 14:12 33.433255 -112.003788 180 1131ft 21kts
16-Mar-20 14:13 33.432144 -112.008847 273 1136ft 28kts
16-Mar-20 14:14 33.432197 -112.018239 269 1124ft 28kts
16-Mar-20 14:15 33.432200 -112.026636 266 1119ft 12kts
16-Mar-20 14:16 33.432126 -112.026879 215 1119ft 0kts
16-Mar-20 14:17 33.431086 -112.026818 110 1119ft 8kts
16-Mar-20 14:18 33.431285 -111.991770 90 1842ft 181kts
16-Mar-20 14:19 33.434704 -111.923194 89 3939ft 240kts
16-Mar-20 14:20 33.459634 -111.847482 18 6598ft 288kts
16-Mar-20 14:21 33.542461 -111.844070 2 9031ft 314kts
16-Mar-20 14:22 33.632985 -111.838111 4 11039ft 357kts
16-Mar-20 14:23 33.737479 -111.865103 320 11877ft 415kts
16-Mar-20 14:24 33.808897 -111.974657 303 13974ft 425kts
16-Mar-20 14:25 33.879863 -112.090858 302 16207ft 438kts
16-Mar-20 14:26 33.952845 -112.210797 301 18258ft 451kts
16-Mar-20 14:27 34.029214 -112.332782 309 20230ft 466kts
16-Mar-20 14:28 34.129463 -112.436720 315 21981ft 482kts
16-Mar-20 14:29 34.233591 -112.541538 315 23594ft 491kts
16-Mar-20 14:30 34.339067 -112.648113 314 25073ft 500kts
16-Mar-20 14:31 34.446395 -112.756910 313 26082ft 505kts
16-Mar-20 14:32 34.554042 -112.866422 313 26092ft 506kts
16-Mar-20 14:33 34.658523 -112.979741 311 26093ft 505kts
16-Mar-20 14:34 34.763128 -113.094114 311 26087ft 506kts
16-Mar-20 14:35 34.867175 -113.208283 311 26066ft 504kts
16-Mar-20 14:36 34.971193 -113.324520 305 26051ft 505kts
16-Mar-20 14:37 35.044772 -113.466663 292 26067ft 496kts
16-Mar-20 14:38 35.112551 -113.612687 292 26052ft 482kts
16-Mar-20 14:39 35.173489 -113.744352 290 26064ft 426kts
16-Mar-20 14:40 35.232250 -113.872025 291 25819ft 429kts
16-Mar-20 14:41 35.311189 -113.981423 316 23189ft 443kts
16-Mar-20 14:42 35.408691 -114.071735 317 20407ft 436kts
16-Mar-20 14:43 35.503352 -114.159973 318 18020ft 418kts
16-Mar-20 14:44 35.595470 -114.245879 320 15089ft 412kts
16-Mar-20 14:45 35.684824 -114.329416 320 12855ft 382kts
16-Mar-20 14:46 35.764920 -114.394039 336 12056ft 319kts
16-Mar-20 14:47 35.847680 -114.432715 338 12038ft 321kts
16-Mar-20 14:48 35.930694 -114.472104 330 11113ft 319kts
16-Mar-20 14:49 35.962370 -114.563027 271 10214ft 297kts
16-Mar-20 14:50 35.969515 -114.663949 271 9224ft 292kts
16-Mar-20 14:51 35.976464 -114.763304 271 8233ft 288kts
16-Mar-20 14:52 35.983129 -114.861408 271 8036ft 287kts
16-Mar-20 14:53 35.989911 -114.959811 271 8038ft 287kts
16-Mar-20 14:54 36.006669 -115.057476 281 7528ft 289kts
16-Mar-20 14:55 36.012157 -115.155016 261 6908ft 286kts
16-Mar-20 14:56 36.006186 -115.252214 265 6272ft 275kts
16-Mar-20 14:57 36.047978 -115.285695 27 5436ft 185kts
16-Mar-20 14:58 36.074009 -115.246632 92 4100ft 151kts
16-Mar-20 14:59 36.073613 -115.195133 92 2876ft 153kts
16-Mar-20 15:00 36.073620 -115.144172 89 2103ft 113kts
16-Mar-20 15:01 36.074679 -115.126044 359 2051ft 4kts
16-Mar-20 15:02 36.078255 -115.127631 271 2048ft 19kts

Navigation Log

Ident Type
Flight plan parsing failed, navigation log unavailable